Aurora — WDE6368 — position and weather

sailwx.info

Track history (hours):
 
Tides and Currents Weather Stations Pressure Air Temp Water Temp Dewpoint Dewpoint Depression Visibility Wind Speed Wind Dir Waves Ship Positions

Aurora

Owner: Boston Harbor Cruises, Boston, MA. More information available from US FCC via Universal Licensing System and Coast Guard Vessel Documentation Center.

Last reported at 2018-Apr-22 22:43 UTC. Time now 2018-Apr-23 02:09 UTC.
Position N 42°15' W 070°55'.

Length 37 m.

Type: High speed craft. MMSI: 367379320.

Date/timePositionNaut miles runAvg speedWind from/ knotsBaromVisibWave heightAir tempDewpointWater temp
2018-Apr-22 22:43N 42°15' W 070°55'1 2.9
2018-Apr-22 22:30N 42°16' W 070°55'816.4
2018-Apr-22 22:01N 42°22' W 071°03'611.8
2018-Apr-22 21:30N 42°22' W 070°55'1530.1
2018-Apr-22 21:01N 42°25' W 070°35'611.7
2018-Apr-22 20:30N 42°25' W 070°27'1 1.5
2018-Apr-22 20:01N 42°25' W 070°28'4 7.3
2018-Apr-22 19:30N 42°25' W 070°33'1427.3
2018-Apr-22 19:01N 42°23' W 070°51'917.3
2018-Apr-22 18:30N 42°22' W 071°03'0 0.0
2018-Apr-22 18:00N 42°22' W 071°03'0 0.0
2018-Apr-22 17:30N 42°22' W 071°03'714.7
2018-Apr-22 17:01N 42°23' W 070°53'1428.8
2018-Apr-22 16:30N 42°25' W 070°34'5 9.2
2018-Apr-22 16:00N 42°25' W 070°28'1 1.6
2018-Apr-22 15:30N 42°24' W 070°27'612.8
2018-Apr-22 15:01N 42°25' W 070°36'1122.8
2018-Apr-22 14:30N 42°23' W 070°51'917.8
2018-Apr-22 14:00N 42°22' W 071°03'0 0.0
2018-Apr-22 13:30N 42°22' W 071°03'0 0.2
2018-Apr-22 13:01N 42°22' W 071°03'1 1.6
2018-Apr-22 12:30N 42°21' W 071°02'814.1
2018-Apr-22 11:57N 42°15' W 070°55'1 0.1
2018-Apr-21 23:47N 42°16' W 070°55'2 6.8
2018-Apr-21 23:31N 42°17' W 070°57'612.1
2018-Apr-21 23:00N 42°22' W 071°03'0 0.0
2018-Apr-21 22:30N 42°22' W 071°03'816.1
2018-Apr-21 22:00N 42°24' W 070°52'1021.4
2018-Apr-21 21:31N 42°25' W 070°38'917.4
2018-Apr-21 21:00N 42°25' W 070°26'0 1.0
2018-Apr-21 20:30N 42°25' W 070°26'1 2.2
2018-Apr-21 19:57N 42°25' W 070°27'716.5
2018-Apr-21 19:30N 42°25' W 070°37'1224.0
2018-Apr-21 19:01N 42°23' W 070°53'713.2
2018-Apr-21 18:27N 42°22' W 071°03'0 0.0
2018-Apr-21 17:54N 42°22' W 071°03'0 0.3
2018-Apr-21 17:28N 42°22' W 071°03'1221.0
2018-Apr-21 16:53N 42°25' W 070°47'924.4
2018-Apr-21 16:31N 42°25' W 070°35'510.4
2018-Apr-21 16:00N 42°25' W 070°28'0 0.3
2018-Apr-21 15:30N 42°25' W 070°28'510.0
2018-Apr-21 15:00N 42°25' W 070°34'1326.8
2018-Apr-21 14:30N 42°24' W 070°52'8 6.6
2018-Apr-21 13:16N 42°22' W 071°03'0 0.2
2018-Apr-21 13:00N 42°22' W 071°03'1 1.2
2018-Apr-21 12:30N 42°22' W 071°02'6 0.5
2018-Apr-20 23:58N 42°17' W 070°56'714.2
2018-Apr-20 23:30N 42°21' W 071°03'2 4.8
2018-Apr-20 23:00N 42°20' W 071°00'6 9.2
2018-Apr-20 22:23N 42°16' W 070°55'819.6
2018-Apr-20 21:59N 42°21' W 071°03'3 6.5
2018-Apr-20 21:28N 42°20' W 070°59'2 2.2
2018-Apr-20 20:41N 42°21' W 071°01'2 8.2
2018-Apr-20 20:29N 42°21' W 071°03'0 0.3
2018-Apr-20 20:00N 42°21' W 071°03'1 1.4
2018-Apr-20 19:28N 42°22' W 071°02'0 0.0
2018-Apr-20 18:56N 42°22' W 071°02'0 0.0
2018-Apr-20 18:25N 42°22' W 071°02'0 0.4
2018-Apr-20 18:00N 42°22' W 071°02'1 0.6
2018-Apr-20 17:08N 42°22' W 071°03'827.2
2018-Apr-20 16:50N 42°23' W 070°52'721.7
2018-Apr-20 16:30N 42°25' W 070°42'1120.7
2018-Apr-20 16:00N 42°24' W 070°28'0 0.4
2018-Apr-20 15:30N 42°25' W 070°28'3 6.6
2018-Apr-20 15:00N 42°25' W 070°32'1629.6
2018-Apr-20 14:29N 42°23' W 070°53'712.3
2018-Apr-20 13:53N 42°22' W 071°03'0 0.5
2018-Apr-20 13:29N 42°22' W 071°03'510.0
2018-Apr-20 13:00N 42°18' W 070°58'3 4.9
2018-Apr-20 12:22N 42°16' W 070°55'821.7
2018-Apr-20 12:00N 42°21' W 071°03'8 0.6
2018-Apr-19 23:54N 42°16' W 070°56'819.3
2018-Apr-19 23:30N 42°21' W 071°03'3 6.8
2018-Apr-19 22:59N 42°19' W 070°59'510.2
2018-Apr-19 22:30N 42°15' W 070°55'816.3
2018-Apr-19 22:00N 42°21' W 071°03'3 5.1
2018-Apr-19 21:31N 42°20' W 070°60'610.6
2018-Apr-19 20:58N 42°16' W 070°55'817.0
2018-Apr-19 20:30N 42°21' W 071°03'1 1.2
2018-Apr-19 20:00N 42°22' W 071°02'0 0.5
2018-Apr-19 19:30N 42°22' W 071°02'1 1.3
2018-Apr-19 18:59N 42°21' W 071°03'8 8.7
2018-Apr-19 18:02N 42°15' W 070°55'0 3.0
2018-Apr-19 18:00N 42°15' W 070°55'817.2
2018-Apr-19 17:31N 42°21' W 071°03'0 0.0
2018-Apr-19 17:00N 42°21' W 071°03'0 0.1
2018-Apr-19 16:31N 42°21' W 071°03'0 0.1
2018-Apr-19 16:01N 42°21' W 071°03'0 0.7
2018-Apr-19 15:30N 42°21' W 071°02'816.3
2018-Apr-19 15:00N 42°15' W 070°55'0 1.0
2018-Apr-19 14:29N 42°16' W 070°55'816.4
2018-Apr-19 14:00N 42°21' W 071°03'0 0.9
2018-Apr-19 13:31N 42°22' W 071°02'4 8.7
2018-Apr-19 13:01N 42°18' W 070°59'4 7.8
2018-Apr-19 12:30N 42°15' W 070°55'816.5
2018-Apr-19 12:00N 42°21' W 071°03'611.3
2018-Apr-19 11:29N 42°17' W 070°57'2 4.4
2018-Apr-19 10:57N 42°16' W 070°55'0 0.0
2018-Apr-19 00:00N 42°15' W 070°55'816.7
2018-Apr-18 23:30N 42°21' W 071°03'4 7.3
2018-Apr-18 23:00N 42°19' W 070°59'5 8.8
2018-Apr-18 22:29N 42°16' W 070°55'816.4
2018-Apr-18 21:59N 42°21' W 071°03'2 3.3
2018-Apr-18 21:30N 42°21' W 071°01'610.7
2018-Apr-18 20:54N 42°16' W 070°55'818.0
2018-Apr-18 20:29N 42°21' W 071°03'0 0.8
2018-Apr-18 20:00N 42°21' W 071°02'0 0.7
2018-Apr-18 19:30N 42°22' W 071°02'0 0.0
2018-Apr-18 19:00N 42°22' W 071°02'1 1.1
2018-Apr-18 18:30N 42°22' W 071°03'0 0.2
2018-Apr-18 17:59N 42°22' W 071°03'511.0
2018-Apr-18 17:30N 42°21' W 070°56'712.6
2018-Apr-18 16:56N 42°22' W 070°46'1227.7
2018-Apr-18 16:30N 42°23' W 070°30'4 8.0
2018-Apr-18 16:00N 42°24' W 070°25'1 2.8
2018-Apr-18 15:31N 42°24' W 070°26'4 8.9
2018-Apr-18 15:00N 42°25' W 070°32'1427.9
2018-Apr-18 14:31N 42°23' W 070°51'918.0
2018-Apr-18 14:00N 42°22' W 071°03'0 0.4
2018-Apr-18 13:30N 42°22' W 071°03'612.1
2018-Apr-18 13:01N 42°17' W 070°57'2 3.6
2018-Apr-18 12:26N 42°16' W 070°55'817.7
2018-Apr-18 11:59N 42°21' W 071°03'611.2
2018-Apr-18 11:29N 42°17' W 070°58'3 5.4
2018-Apr-18 10:58N 42°15' W 070°55'1 0.1
2018-Apr-17 23:54N 42°16' W 070°55'820.3
2018-Apr-17 23:30N 42°21' W 071°03'2 3.7
2018-Apr-17 23:00N 42°21' W 071°01'713.3
2018-Apr-17 22:30N 42°15' W 070°55'815.8
2018-Apr-17 21:58N 42°21' W 071°03'1 1.9
2018-Apr-17 21:30N 42°21' W 071°02'712.6
2018-Apr-17 20:56N 42°16' W 070°55'817.8
2018-Apr-17 20:29N 42°21' W 071°03'0 0.3
2018-Apr-17 20:00N 42°21' W 071°03'814.8
2018-Apr-17 19:30N 42°15' W 070°58'0 0.0
2018-Apr-17 18:59N 42°15' W 070°58'0 0.0
2018-Apr-17 18:30N 42°15' W 070°58'0 0.0
2018-Apr-17 17:58N 42°15' W 070°58'0 0.0
2018-Apr-17 17:30N 42°15' W 070°58'0 0.0
2018-Apr-17 17:00N 42°15' W 070°58'0 0.0
2018-Apr-17 16:29N 42°15' W 070°58'0 0.0
2018-Apr-17 15:59N 42°15' W 070°58'2 1.3
2018-Apr-17 14:10N 42°15' W 070°55'210.9
2018-Apr-17 14:00N 42°17' W 070°56'713.1
2018-Apr-17 13:30N 42°22' W 071°02'5 9.2
2018-Apr-17 13:00N 42°18' W 070°58'4 6.6
2018-Apr-17 12:28N 42°15' W 070°55'818.2
2018-Apr-17 12:00N 42°21' W 071°03'4 8.4
2018-Apr-17 11:30N 42°18' W 070°59'4 8.0
2018-Apr-17 10:59N 42°15' W 070°55'1 2.4
2018-Apr-17 10:30N 42°16' W 070°56'1 1.9
2018-Apr-17 09:53N 42°15' W 070°55'0 0.0
2018-Apr-17 00:17N 42°15' W 070°55'1 1.7
2018-Apr-16 23:59N 42°16' W 070°55'816.7
2018-Apr-16 23:30N 42°21' W 071°03'3 7.0
2018-Apr-16 23:00N 42°19' W 070°59'5 9.7
2018-Apr-16 22:30N 42°15' W 070°55'816.7
2018-Apr-16 22:00N 42°21' W 071°03'2 3.1
2018-Apr-16 21:30N 42°21' W 071°01'711.4
2018-Apr-16 20:56N 42°16' W 070°55'818.8
2018-Apr-16 20:30N 42°21' W 071°03'0 0.6
2018-Apr-16 20:01N 42°21' W 071°03'1 1.1
2018-Apr-16 19:31N 42°22' W 071°02'0 0.0
2018-Apr-16 19:00N 42°22' W 071°02'0 0.0
2018-Apr-16 18:30N 42°22' W 071°02'0 0.0
2018-Apr-16 18:00N 42°22' W 071°02'0 0.0
2018-Apr-16 17:30N 42°22' W 071°02'0 0.0
2018-Apr-16 17:00N 42°22' W 071°02'0 0.0
2018-Apr-16 16:30N 42°22' W 071°02'0 0.0
2018-Apr-16 16:00N 42°22' W 071°02'0 0.0
2018-Apr-16 15:30N 42°22' W 071°02'0 0.0
2018-Apr-16 15:00N 42°22' W 071°02'0 0.0
2018-Apr-16 14:30N 42°22' W 071°02'0 0.3
2018-Apr-16 14:00N 42°22' W 071°02'1 1.1
2018-Apr-16 13:30N 42°22' W 071°03'4 8.7
2018-Apr-16 13:01N 42°19' W 070°59'4 8.4
2018-Apr-16 12:30N 42°15' W 070°55'816.7
2018-Apr-16 12:01N 42°21' W 071°03'4 8.8
2018-Apr-16 11:30N 42°18' W 070°59'4 6.5
2018-Apr-16 10:54N 42°15' W 070°55'1 0.0
2018-Apr-14 22:41N 42°16' W 070°56'426.6
2018-Apr-14 22:31N 42°20' W 070°60'3 6.1
2018-Apr-14 22:00N 42°22' W 071°03'5 9.3
2018-Apr-14 21:30N 42°20' W 070°57'2111.8
2018-Apr-14 19:44N 42°24' W 070°29'419.7
2018-Apr-14 19:30N 42°23' W 070°35'1223.8
2018-Apr-14 19:00N 42°21' W 070°51'918.3
2018-Apr-14 18:31N 42°22' W 071°03'0 0.0
2018-Apr-14 18:00N 42°22' W 071°03'0 0.0
2018-Apr-14 17:30N 42°22' W 071°03'714.5
2018-Apr-14 17:00N 42°21' W 070°53'1529.6
2018-Apr-14 16:31N 42°22' W 070°33'4 7.7
2018-Apr-14 15:59N 42°25' W 070°29'0 0.4
2018-Apr-14 15:30N 42°25' W 070°29'510.9
2018-Apr-14 15:00N 42°23' W 070°36'1121.0
2018-Apr-14 14:30N 42°21' W 070°50'1019.7
2018-Apr-14 14:00N 42°22' W 071°03'0 0.4
2018-Apr-14 13:30N 42°22' W 071°03'0 0.4
2018-Apr-14 13:01N 42°22' W 071°03'0 0.3
2018-Apr-14 12:30N 42°22' W 071°03'0 0.3
2018-Apr-14 12:00N 42°22' W 071°03'1 0.1
2018-Apr-14 00:23N 42°21' W 071°02'818.5
2018-Apr-13 23:58N 42°15' W 070°55'818.4
2018-Apr-13 23:30N 42°21' W 071°03'2 3.2
2018-Apr-13 23:01N 42°21' W 071°01'713.9
2018-Apr-13 22:30N 42°15' W 070°55'816.7
2018-Apr-13 22:00N 42°21' W 071°03'2 3.8
2018-Apr-13 21:31N 42°21' W 071°01'712.8
2018-Apr-13 20:59N 42°15' W 070°55'817.5
2018-Apr-13 20:30N 42°21' W 071°03'1 1.2
2018-Apr-13 20:00N 42°22' W 071°02'0 0.6
2018-Apr-13 19:30N 42°22' W 071°02'0 0.0
2018-Apr-13 19:00N 42°22' W 071°02'0 0.0
2018-Apr-13 18:30N 42°22' W 071°02'0 0.3
2018-Apr-13 18:01N 42°22' W 071°02'1 1.3
2018-Apr-13 17:30N 42°22' W 071°03'3 5.4
2018-Apr-13 17:00N 42°20' W 070°60'1224.4
2018-Apr-13 16:30N 42°24' W 070°44'1121.7
2018-Apr-13 16:00N 42°25' W 070°29'0 0.9
2018-Apr-13 15:30N 42°24' W 070°29'2 3.7
2018-Apr-13 15:00N 42°23' W 070°31'1529.9
2018-Apr-13 14:31N 42°23' W 070°51'917.5
2018-Apr-13 14:00N 42°22' W 071°03'0 0.1
2018-Apr-13 13:30N 42°22' W 071°03'4 9.0
2018-Apr-13 13:01N 42°18' W 070°59'4 5.9
2018-Apr-13 12:23N 42°16' W 070°55'821.5
2018-Apr-13 12:00N 42°21' W 071°03'4 8.0
2018-Apr-13 11:30N 42°19' W 070°59'4 7.2
2018-Apr-13 10:54N 42°15' W 070°55'0 0.0
2018-Apr-12 23:57N 42°16' W 070°55'817.6
2018-Apr-12 23:30N 42°21' W 071°03'3 7.0
2018-Apr-12 23:01N 42°19' W 070°59'  
Track history (hours):
 
Tides and Currents Weather Stations Pressure Air Temp Water Temp Dewpoint Dewpoint Depression Visibility Wind Speed Wind Dir Waves Ship Positions

Aurora

Owner: Boston Harbor Cruises, Boston, MA. More information available from US FCC via Universal Licensing System and Coast Guard Vessel Documentation Center.

Last reported at 2018-Apr-22 22:43 UTC. Time now 2018-Apr-23 02:09 UTC.
Position N 42°15' W 070°55'.

Length 37 m.

Type: High speed craft. MMSI: 367379320.

Date/timePositionNaut miles runAvg speedWind from/ knotsBaromVisibWave heightAir tempDewpointWater temp
2018-Apr-22 22:43N 42°15' W 070°55'1 2.9
2018-Apr-22 22:30N 42°16' W 070°55'816.4
2018-Apr-22 22:01N 42°22' W 071°03'611.8
2018-Apr-22 21:30N 42°22' W 070°55'1530.1
2018-Apr-22 21:01N 42°25' W 070°35'611.7
2018-Apr-22 20:30N 42°25' W 070°27'1 1.5
2018-Apr-22 20:01N 42°25' W 070°28'4 7.3
2018-Apr-22 19:30N 42°25' W 070°33'1427.3
2018-Apr-22 19:01N 42°23' W 070°51'917.3
2018-Apr-22 18:30N 42°22' W 071°03'0 0.0
2018-Apr-22 18:00N 42°22' W 071°03'0 0.0
2018-Apr-22 17:30N 42°22' W 071°03'714.7
2018-Apr-22 17:01N 42°23' W 070°53'1428.8
2018-Apr-22 16:30N 42°25' W 070°34'5 9.2
2018-Apr-22 16:00N 42°25' W 070°28'1 1.6
2018-Apr-22 15:30N 42°24' W 070°27'612.8
2018-Apr-22 15:01N 42°25' W 070°36'1122.8
2018-Apr-22 14:30N 42°23' W 070°51'917.8
2018-Apr-22 14:00N 42°22' W 071°03'0 0.0
2018-Apr-22 13:30N 42°22' W 071°03'0 0.2
2018-Apr-22 13:01N 42°22' W 071°03'1 1.6
2018-Apr-22 12:30N 42°21' W 071°02'814.1
2018-Apr-22 11:57N 42°15' W 070°55'1 0.1
2018-Apr-21 23:47N 42°16' W 070°55'2 6.8
2018-Apr-21 23:31N 42°17' W 070°57'612.1
2018-Apr-21 23:00N 42°22' W 071°03'0 0.0
2018-Apr-21 22:30N 42°22' W 071°03'816.1
2018-Apr-21 22:00N 42°24' W 070°52'1021.4
2018-Apr-21 21:31N 42°25' W 070°38'917.4
2018-Apr-21 21:00N 42°25' W 070°26'0 1.0
2018-Apr-21 20:30N 42°25' W 070°26'1 2.2
2018-Apr-21 19:57N 42°25' W 070°27'716.5
2018-Apr-21 19:30N 42°25' W 070°37'1224.0
2018-Apr-21 19:01N 42°23' W 070°53'713.2
2018-Apr-21 18:27N 42°22' W 071°03'0 0.0
2018-Apr-21 17:54N 42°22' W 071°03'0 0.3
2018-Apr-21 17:28N 42°22' W 071°03'1221.0
2018-Apr-21 16:53N 42°25' W 070°47'924.4
2018-Apr-21 16:31N 42°25' W 070°35'510.4
2018-Apr-21 16:00N 42°25' W 070°28'0 0.3
2018-Apr-21 15:30N 42°25' W 070°28'510.0
2018-Apr-21 15:00N 42°25' W 070°34'1326.8
2018-Apr-21 14:30N 42°24' W 070°52'8 6.6
2018-Apr-21 13:16N 42°22' W 071°03'0 0.2
2018-Apr-21 13:00N 42°22' W 071°03'1 1.2
2018-Apr-21 12:30N 42°22' W 071°02'6 0.5
2018-Apr-20 23:58N 42°17' W 070°56'714.2
2018-Apr-20 23:30N 42°21' W 071°03'2 4.8
2018-Apr-20 23:00N 42°20' W 071°00'6 9.2
2018-Apr-20 22:23N 42°16' W 070°55'819.6
2018-Apr-20 21:59N 42°21' W 071°03'3 6.5
2018-Apr-20 21:28N 42°20' W 070°59'2 2.2
2018-Apr-20 20:41N 42°21' W 071°01'2 8.2
2018-Apr-20 20:29N 42°21' W 071°03'0 0.3
2018-Apr-20 20:00N 42°21' W 071°03'1 1.4
2018-Apr-20 19:28N 42°22' W 071°02'0 0.0
2018-Apr-20 18:56N 42°22' W 071°02'0 0.0
2018-Apr-20 18:25N 42°22' W 071°02'0 0.4
2018-Apr-20 18:00N 42°22' W 071°02'1 0.6
2018-Apr-20 17:08N 42°22' W 071°03'827.2
2018-Apr-20 16:50N 42°23' W 070°52'721.7
2018-Apr-20 16:30N 42°25' W 070°42'1120.7
2018-Apr-20 16:00N 42°24' W 070°28'0 0.4
2018-Apr-20 15:30N 42°25' W 070°28'3 6.6
2018-Apr-20 15:00N 42°25' W 070°32'1629.6
2018-Apr-20 14:29N 42°23' W 070°53'712.3
2018-Apr-20 13:53N 42°22' W 071°03'0 0.5
2018-Apr-20 13:29N 42°22' W 071°03'510.0
2018-Apr-20 13:00N 42°18' W 070°58'3 4.9
2018-Apr-20 12:22N 42°16' W 070°55'821.7
2018-Apr-20 12:00N 42°21' W 071°03'8 0.6
2018-Apr-19 23:54N 42°16' W 070°56'819.3
2018-Apr-19 23:30N 42°21' W 071°03'3 6.8
2018-Apr-19 22:59N 42°19' W 070°59'510.2
2018-Apr-19 22:30N 42°15' W 070°55'816.3
2018-Apr-19 22:00N 42°21' W 071°03'3 5.1
2018-Apr-19 21:31N 42°20' W 070°60'610.6
2018-Apr-19 20:58N 42°16' W 070°55'817.0
2018-Apr-19 20:30N 42°21' W 071°03'1 1.2
2018-Apr-19 20:00N 42°22' W 071°02'0 0.5
2018-Apr-19 19:30N 42°22' W 071°02'1 1.3
2018-Apr-19 18:59N 42°21' W 071°03'8 8.7
2018-Apr-19 18:02N 42°15' W 070°55'0 3.0
2018-Apr-19 18:00N 42°15' W 070°55'817.2
2018-Apr-19 17:31N 42°21' W 071°03'0 0.0
2018-Apr-19 17:00N 42°21' W 071°03'0 0.1
2018-Apr-19 16:31N 42°21' W 071°03'0 0.1
2018-Apr-19 16:01N 42°21' W 071°03'0 0.7
2018-Apr-19 15:30N 42°21' W 071°02'816.3
2018-Apr-19 15:00N 42°15' W 070°55'0 1.0
2018-Apr-19 14:29N 42°16' W 070°55'816.4
2018-Apr-19 14:00N 42°21' W 071°03'0 0.9
2018-Apr-19 13:31N 42°22' W 071°02'4 8.7
2018-Apr-19 13:01N 42°18' W 070°59'4 7.8
2018-Apr-19 12:30N 42°15' W 070°55'816.5
2018-Apr-19 12:00N 42°21' W 071°03'611.3
2018-Apr-19 11:29N 42°17' W 070°57'2 4.4
2018-Apr-19 10:57N 42°16' W 070°55'0 0.0
2018-Apr-19 00:00N 42°15' W 070°55'816.7
2018-Apr-18 23:30N 42°21' W 071°03'4 7.3
2018-Apr-18 23:00N 42°19' W 070°59'5 8.8
2018-Apr-18 22:29N 42°16' W 070°55'816.4
2018-Apr-18 21:59N 42°21' W 071°03'2 3.3
2018-Apr-18 21:30N 42°21' W 071°01'610.7
2018-Apr-18 20:54N 42°16' W 070°55'818.0
2018-Apr-18 20:29N 42°21' W 071°03'0 0.8
2018-Apr-18 20:00N 42°21' W 071°02'0 0.7
2018-Apr-18 19:30N 42°22' W 071°02'0 0.0
2018-Apr-18 19:00N 42°22' W 071°02'1 1.1
2018-Apr-18 18:30N 42°22' W 071°03'0 0.2
2018-Apr-18 17:59N 42°22' W 071°03'511.0
2018-Apr-18 17:30N 42°21' W 070°56'712.6
2018-Apr-18 16:56N 42°22' W 070°46'1227.7
2018-Apr-18 16:30N 42°23' W 070°30'4 8.0
2018-Apr-18 16:00N 42°24' W 070°25'1 2.8
2018-Apr-18 15:31N 42°24' W 070°26'4 8.9
2018-Apr-18 15:00N 42°25' W 070°32'1427.9
2018-Apr-18 14:31N 42°23' W 070°51'918.0
2018-Apr-18 14:00N 42°22' W 071°03'0 0.4
2018-Apr-18 13:30N 42°22' W 071°03'612.1
2018-Apr-18 13:01N 42°17' W 070°57'2 3.6
2018-Apr-18 12:26N 42°16' W 070°55'817.7
2018-Apr-18 11:59N 42°21' W 071°03'611.2
2018-Apr-18 11:29N 42°17' W 070°58'3 5.4
2018-Apr-18 10:58N 42°15' W 070°55'1 0.1
2018-Apr-17 23:54N 42°16' W 070°55'820.3
2018-Apr-17 23:30N 42°21' W 071°03'2 3.7
2018-Apr-17 23:00N 42°21' W 071°01'713.3
2018-Apr-17 22:30N 42°15' W 070°55'815.8
2018-Apr-17 21:58N 42°21' W 071°03'1 1.9
2018-Apr-17 21:30N 42°21' W 071°02'712.6
2018-Apr-17 20:56N 42°16' W 070°55'817.8
2018-Apr-17 20:29N 42°21' W 071°03'0 0.3
2018-Apr-17 20:00N 42°21' W 071°03'814.8
2018-Apr-17 19:30N 42°15' W 070°58'0 0.0
2018-Apr-17 18:59N 42°15' W 070°58'0 0.0
2018-Apr-17 18:30N 42°15' W 070°58'0 0.0
2018-Apr-17 17:58N 42°15' W 070°58'0 0.0
2018-Apr-17 17:30N 42°15' W 070°58'0 0.0
2018-Apr-17 17:00N 42°15' W 070°58'0 0.0
2018-Apr-17 16:29N 42°15' W 070°58'0 0.0
2018-Apr-17 15:59N 42°15' W 070°58'2 1.3
2018-Apr-17 14:10N 42°15' W 070°55'210.9
2018-Apr-17 14:00N 42°17' W 070°56'713.1
2018-Apr-17 13:30N 42°22' W 071°02'5 9.2
2018-Apr-17 13:00N 42°18' W 070°58'4 6.6
2018-Apr-17 12:28N 42°15' W 070°55'818.2
2018-Apr-17 12:00N 42°21' W 071°03'4 8.4
2018-Apr-17 11:30N 42°18' W 070°59'4 8.0
2018-Apr-17 10:59N 42°15' W 070°55'1 2.4
2018-Apr-17 10:30N 42°16' W 070°56'1 1.9
2018-Apr-17 09:53N 42°15' W 070°55'0 0.0
2018-Apr-17 00:17N 42°15' W 070°55'1 1.7
2018-Apr-16 23:59N 42°16' W 070°55'816.7
2018-Apr-16 23:30N 42°21' W 071°03'3 7.0
2018-Apr-16 23:00N 42°19' W 070°59'5 9.7
2018-Apr-16 22:30N 42°15' W 070°55'816.7
2018-Apr-16 22:00N 42°21' W 071°03'2 3.1
2018-Apr-16 21:30N 42°21' W 071°01'711.4
2018-Apr-16 20:56N 42°16' W 070°55'818.8
2018-Apr-16 20:30N 42°21' W 071°03'0 0.6
2018-Apr-16 20:01N 42°21' W 071°03'1 1.1
2018-Apr-16 19:31N 42°22' W 071°02'0 0.0
2018-Apr-16 19:00N 42°22' W 071°02'0 0.0
2018-Apr-16 18:30N 42°22' W 071°02'0 0.0
2018-Apr-16 18:00N 42°22' W 071°02'0 0.0
2018-Apr-16 17:30N 42°22' W 071°02'0 0.0
2018-Apr-16 17:00N 42°22' W 071°02'0 0.0
2018-Apr-16 16:30N 42°22' W 071°02'0 0.0
2018-Apr-16 16:00N 42°22' W 071°02'0 0.0
2018-Apr-16 15:30N 42°22' W 071°02'0 0.0
2018-Apr-16 15:00N 42°22' W 071°02'0 0.0
2018-Apr-16 14:30N 42°22' W 071°02'0 0.3
2018-Apr-16 14:00N 42°22' W 071°02'1 1.1
2018-Apr-16 13:30N 42°22' W 071°03'4 8.7
2018-Apr-16 13:01N 42°19' W 070°59'4 8.4
2018-Apr-16 12:30N 42°15' W 070°55'816.7
2018-Apr-16 12:01N 42°21' W 071°03'4 8.8
2018-Apr-16 11:30N 42°18' W 070°59'4 6.5
2018-Apr-16 10:54N 42°15' W 070°55'1 0.0
2018-Apr-14 22:41N 42°16' W 070°56'426.6
2018-Apr-14 22:31N 42°20' W 070°60'3 6.1
2018-Apr-14 22:00N 42°22' W 071°03'5 9.3
2018-Apr-14 21:30N 42°20' W 070°57'2111.8
2018-Apr-14 19:44N 42°24' W 070°29'419.7
2018-Apr-14 19:30N 42°23' W 070°35'1223.8
2018-Apr-14 19:00N 42°21' W 070°51'918.3
2018-Apr-14 18:31N 42°22' W 071°03'0 0.0
2018-Apr-14 18:00N 42°22' W 071°03'0 0.0
2018-Apr-14 17:30N 42°22' W 071°03'714.5
2018-Apr-14 17:00N 42°21' W 070°53'1529.6
2018-Apr-14 16:31N 42°22' W 070°33'4 7.7
2018-Apr-14 15:59N 42°25' W 070°29'0 0.4
2018-Apr-14 15:30N 42°25' W 070°29'510.9
2018-Apr-14 15:00N 42°23' W 070°36'1121.0
2018-Apr-14 14:30N 42°21' W 070°50'1019.7
2018-Apr-14 14:00N 42°22' W 071°03'0 0.4
2018-Apr-14 13:30N 42°22' W 071°03'0 0.4
2018-Apr-14 13:01N 42°22' W 071°03'0 0.3
2018-Apr-14 12:30N 42°22' W 071°03'0 0.3
2018-Apr-14 12:00N 42°22' W 071°03'1 0.1
2018-Apr-14 00:23N 42°21' W 071°02'818.5
2018-Apr-13 23:58N 42°15' W 070°55'818.4
2018-Apr-13 23:30N 42°21' W 071°03'2 3.2
2018-Apr-13 23:01N 42°21' W 071°01'713.9
2018-Apr-13 22:30N 42°15' W 070°55'816.7
2018-Apr-13 22:00N 42°21' W 071°03'2 3.8
2018-Apr-13 21:31N 42°21' W 071°01'712.8
2018-Apr-13 20:59N 42°15' W 070°55'817.5
2018-Apr-13 20:30N 42°21' W 071°03'1 1.2
2018-Apr-13 20:00N 42°22' W 071°02'0 0.6
2018-Apr-13 19:30N 42°22' W 071°02'0 0.0
2018-Apr-13 19:00N 42°22' W 071°02'0 0.0
2018-Apr-13 18:30N 42°22' W 071°02'0 0.3
2018-Apr-13 18:01N 42°22' W 071°02'1 1.3
2018-Apr-13 17:30N 42°22' W 071°03'3 5.4
2018-Apr-13 17:00N 42°20' W 070°60'1224.4
2018-Apr-13 16:30N 42°24' W 070°44'1121.7
2018-Apr-13 16:00N 42°25' W 070°29'0 0.9
2018-Apr-13 15:30N 42°24' W 070°29'2 3.7
2018-Apr-13 15:00N 42°23' W 070°31'1529.9
2018-Apr-13 14:31N 42°23' W 070°51'917.5
2018-Apr-13 14:00N 42°22' W 071°03'0 0.1
2018-Apr-13 13:30N 42°22' W 071°03'4 9.0
2018-Apr-13 13:01N 42°18' W 070°59'4 5.9
2018-Apr-13 12:23N 42°16' W 070°55'821.5
2018-Apr-13 12:00N 42°21' W 071°03'4 8.0
2018-Apr-13 11:30N 42°19' W 070°59'4 7.2
2018-Apr-13 10:54N 42°15' W 070°55'0 0.0
2018-Apr-12 23:57N 42°16' W 070°55'817.6
2018-Apr-12 23:30N 42°21' W 071°03'3 7.0
2018-Apr-12 23:01N 42°19' W 070°59'  

Dump ship's entire track history